sensor_id;sensor_type;location;lat;lon;timestamp;P1;durP1;ratioP1;P2;durP2;ratioP2
70008;SDS011;59542;37.950;-122.338;2022-12-07T00:01:22;4.00;;;0.60;;
70008;SDS011;59542;37.950;-122.338;2022-12-07T00:03:50;1.10;;;0.68;;
70008;SDS011;59542;37.950;-122.338;2022-12-07T00:06:18;1.30;;;0.55;;
70008;SDS011;59542;37.950;-122.338;2022-12-07T00:08:45;2.13;;;0.80;;
70008;SDS011;59542;37.950;-122.338;2022-12-07T00:11:16;2.38;;;0.57;;
70008;SDS011;59542;37.950;-122.338;2022-12-07T00:13:44;2.05;;;0.57;;
70008;SDS011;59542;37.950;-122.338;2022-12-07T00:16:12;1.73;;;0.50;;
70008;SDS011;59542;37.950;-122.338;2022-12-07T00:18:43;2.05;;;0.77;;
70008;SDS011;59542;37.950;-122.338;2022-12-07T00:21:11;1.30;;;0.60;;
70008;SDS011;59542;37.950;-122.338;2022-12-07T00:23:38;0.95;;;0.50;;
70008;SDS011;59542;37.950;-122.338;2022-12-07T00:26:09;1.98;;;0.60;;
70008;SDS011;59542;37.950;-122.338;2022-12-07T00:28:38;2.47;;;0.90;;
70008;SDS011;59542;37.950;-122.338;2022-12-07T00:31:08;3.53;;;0.70;;
70008;SDS011;59542;37.950;-122.338;2022-12-07T00:33:37;2.55;;;0.95;;
70008;SDS011;59542;37.950;-122.338;2022-12-07T00:36:05;1.75;;;0.80;;
70008;SDS011;59542;37.950;-122.338;2022-12-07T00:38:34;2.03;;;0.68;;
70008;SDS011;59542;37.950;-122.338;2022-12-07T00:41:03;2.53;;;1.13;;
70008;SDS011;59542;37.950;-122.338;2022-12-07T00:43:31;2.80;;;0.98;;
70008;SDS011;59542;37.950;-122.338;2022-12-07T00:45:58;2.08;;;0.82;;
70008;SDS011;59542;37.950;-122.338;2022-12-07T00:48:24;2.72;;;0.82;;
70008;SDS011;59542;37.950;-122.338;2022-12-07T00:50:51;1.50;;;0.80;;
70008;SDS011;59542;37.950;-122.338;2022-12-07T00:53:17;2.90;;;0.80;;
70008;SDS011;59542;37.950;-122.338;2022-12-07T00:55:44;4.03;;;0.80;;
70008;SDS011;59542;37.950;-122.338;2022-12-07T00:58:11;2.95;;;1.10;;
70008;SDS011;59542;37.950;-122.338;2022-12-07T01:00:38;2.88;;;0.80;;
70008;SDS011;59542;37.950;-122.338;2022-12-07T01:03:07;4.40;;;0.93;;
70008;SDS011;59542;37.950;-122.338;2022-12-07T01:05:34;3.25;;;0.98;;
70008;SDS011;59542;37.950;-122.338;2022-12-07T01:08:01;2.80;;;1.20;;
70008;SDS011;59542;37.950;-122.338;2022-12-07T01:10:27;2.50;;;1.30;;
70008;SDS011;59542;37.950;-122.338;2022-12-07T01:12:55;3.35;;;1.30;;
70008;SDS011;59542;37.950;-122.338;2022-12-07T01:15:22;6.18;;;1.10;;
70008;SDS011;59542;37.950;-122.338;2022-12-07T01:17:48;1.58;;;0.80;;
70008;SDS011;59542;37.950;-122.338;2022-12-07T01:20:14;2.00;;;0.82;;
70008;SDS011;59542;37.950;-122.338;2022-12-07T01:22:41;3.83;;;1.00;;
70008;SDS011;59542;37.950;-122.338;2022-12-07T01:25:09;2.88;;;0.90;;
70008;SDS011;59542;37.950;-122.338;2022-12-07T01:27:37;1.88;;;0.80;;
70008;SDS011;59542;37.950;-122.338;2022-12-07T01:30:04;3.25;;;0.88;;
70008;SDS011;59542;37.950;-122.338;2022-12-07T01:32:32;1.98;;;0.80;;
70008;SDS011;59542;37.950;-122.338;2022-12-07T01:34:58;1.65;;;0.77;;
70008;SDS011;59542;37.950;-122.338;2022-12-07T01:37:25;1.30;;;0.70;;
70008;SDS011;59542;37.950;-122.338;2022-12-07T01:39:51;2.45;;;0.88;;
70008;SDS011;59542;37.950;-122.338;2022-12-07T01:42:18;2.28;;;0.88;;
70008;SDS011;59542;37.950;-122.338;2022-12-07T01:45:16;2.95;;;1.15;;
70008;SDS011;59542;37.950;-122.338;2022-12-07T01:47:53;4.65;;;1.70;;
70008;SDS011;59542;37.950;-122.338;2022-12-07T01:50:24;6.80;;;1.92;;
70008;SDS011;59542;37.950;-122.338;2022-12-07T01:52:54;3.90;;;1.80;;
70008;SDS011;59542;37.950;-122.338;2022-12-07T01:55:24;3.65;;;1.75;;
70008;SDS011;59542;37.950;-122.338;2022-12-07T01:57:52;4.60;;;2.10;;
70008;SDS011;59542;37.950;-122.338;2022-12-07T02:00:19;4.13;;;1.90;;
70008;SDS011;59542;37.950;-122.338;2022-12-07T02:03:06;4.00;;;1.63;;
70008;SDS011;59542;37.950;-122.338;2022-12-07T02:05:41;1.80;;;1.20;;
70008;SDS011;59542;37.950;-122.338;2022-12-07T02:08:08;2.58;;;1.60;;
70008;SDS011;59542;37.950;-122.338;2022-12-07T02:10:36;1.80;;;1.30;;
70008;SDS011;59542;37.950;-122.338;2022-12-07T02:13:04;1.90;;;1.15;;
70008;SDS011;59542;37.950;-122.338;2022-12-07T02:30:08;3.17;;;1.17;;
70008;SDS011;59542;37.950;-122.338;2022-12-07T02:32:48;2.15;;;1.15;;
70008;SDS011;59542;37.950;-122.338;2022-12-07T02:35:54;2.65;;;1.75;;
70008;SDS011;59542;37.950;-122.338;2022-12-07T02:44:14;6.88;;;3.95;;
70008;SDS011;59542;37.950;-122.338;2022-12-07T02:46:47;5.03;;;2.70;;
70008;SDS011;59542;37.950;-122.338;2022-12-07T02:49:19;4.00;;;2.33;;
70008;SDS011;59542;37.950;-122.338;2022-12-07T02:51:49;11.45;;;3.97;;
70008;SDS011;59542;37.950;-122.338;2022-12-07T02:54:18;4.65;;;2.55;;
70008;SDS011;59542;37.950;-122.338;2022-12-07T02:59:17;3.17;;;2.10;;
70008;SDS011;59542;37.950;-122.338;2022-12-07T03:02:11;4.43;;;2.22;;
70008;SDS011;59542;37.950;-122.338;2022-12-07T03:05:00;6.78;;;2.25;;
70008;SDS011;59542;37.950;-122.338;2022-12-07T03:07:49;3.28;;;2.25;;
70008;SDS011;59542;37.950;-122.338;2022-12-07T03:10:32;5.15;;;2.15;;
70008;SDS011;59542;37.950;-122.338;2022-12-07T03:13:03;4.97;;;2.30;;
70008;SDS011;59542;37.950;-122.338;2022-12-07T03:15:50;3.03;;;1.85;;
70008;SDS011;59542;37.950;-122.338;2022-12-07T03:18:20;2.97;;;2.08;;
70008;SDS011;59542;37.950;-122.338;2022-12-07T03:20:50;4.40;;;2.70;;
70008;SDS011;59542;37.950;-122.338;2022-12-07T03:23:19;14.38;;;3.42;;
70008;SDS011;59542;37.950;-122.338;2022-12-07T03:25:50;4.85;;;3.10;;
70008;SDS011;59542;37.950;-122.338;2022-12-07T03:28:23;6.90;;;3.17;;
70008;SDS011;59542;37.950;-122.338;2022-12-07T03:30:55;5.13;;;3.25;;
70008;SDS011;59542;37.950;-122.338;2022-12-07T03:33:31;4.43;;;2.90;;
70008;SDS011;59542;37.950;-122.338;2022-12-07T03:36:04;5.38;;;2.60;;
70008;SDS011;59542;37.950;-122.338;2022-12-07T03:38:38;5.05;;;2.80;;
70008;SDS011;59542;37.950;-122.338;2022-12-07T03:41:22;7.03;;;3.25;;
70008;SDS011;59542;37.950;-122.338;2022-12-07T03:43:54;3.35;;;2.88;;
70008;SDS011;59542;37.950;-122.338;2022-12-07T03:54:59;6.53;;;4.50;;
70008;SDS011;59542;37.950;-122.338;2022-12-07T03:57:29;8.50;;;4.20;;
70008;SDS011;59542;37.950;-122.338;2022-12-07T03:59:58;8.55;;;4.30;;
70008;SDS011;59542;37.950;-122.338;2022-12-07T04:02:26;7.55;;;4.00;;
70008;SDS011;59542;37.950;-122.338;2022-12-07T04:04:54;7.13;;;3.97;;
70008;SDS011;59542;37.950;-122.338;2022-12-07T04:07:21;5.43;;;3.47;;
70008;SDS011;59542;37.950;-122.338;2022-12-07T04:09:48;5.38;;;3.20;;
70008;SDS011;59542;37.950;-122.338;2022-12-07T04:12:14;9.60;;;3.25;;
70008;SDS011;59542;37.950;-122.338;2022-12-07T04:14:40;5.28;;;3.22;;
70008;SDS011;59542;37.950;-122.338;2022-12-07T04:17:08;5.68;;;3.15;;
70008;SDS011;59542;37.950;-122.338;2022-12-07T04:19:34;4.28;;;3.03;;
70008;SDS011;59542;37.950;-122.338;2022-12-07T04:22:01;5.20;;;3.00;;
70008;SDS011;59542;37.950;-122.338;2022-12-07T04:24:28;4.15;;;2.80;;
70008;SDS011;59542;37.950;-122.338;2022-12-07T04:26:55;5.75;;;2.97;;
70008;SDS011;59542;37.950;-122.338;2022-12-07T04:29:21;4.97;;;3.55;;
70008;SDS011;59542;37.950;-122.338;2022-12-07T04:31:48;3.55;;;2.72;;
70008;SDS011;59542;37.950;-122.338;2022-12-07T04:34:14;4.43;;;2.53;;
70008;SDS011;59542;37.950;-122.338;2022-12-07T04:36:43;4.53;;;2.70;;
70008;SDS011;59542;37.950;-122.338;2022-12-07T04:39:28;6.05;;;3.10;;
70008;SDS011;59542;37.950;-122.338;2022-12-07T04:41:57;5.43;;;3.20;;
70008;SDS011;59542;37.950;-122.338;2022-12-07T04:44:25;8.95;;;4.22;;
70008;SDS011;59542;37.950;-122.338;2022-12-07T04:46:53;6.30;;;3.13;;
70008;SDS011;59542;37.950;-122.338;2022-12-07T04:49:20;6.00;;;3.35;;
70008;SDS011;59542;37.950;-122.338;2022-12-07T04:51:47;5.55;;;3.35;;
70008;SDS011;59542;37.950;-122.338;2022-12-07T04:54:14;8.35;;;3.72;;
70008;SDS011;59542;37.950;-122.338;2022-12-07T04:56:41;6.82;;;3.38;;
70008;SDS011;59542;37.950;-122.338;2022-12-07T04:59:08;5.30;;;4.05;;
70008;SDS011;59542;37.950;-122.338;2022-12-07T05:01:36;6.13;;;3.50;;
70008;SDS011;59542;37.950;-122.338;2022-12-07T05:04:02;5.05;;;3.20;;
70008;SDS011;59542;37.950;-122.338;2022-12-07T05:06:28;5.50;;;3.47;;
70008;SDS011;59542;37.950;-122.338;2022-12-07T05:08:55;9.43;;;3.55;;
70008;SDS011;59542;37.950;-122.338;2022-12-07T05:11:21;6.88;;;3.40;;
70008;SDS011;59542;37.950;-122.338;2022-12-07T05:14:07;8.75;;;4.82;;
70008;SDS011;59542;37.950;-122.338;2022-12-07T05:16:42;7.05;;;4.10;;
70008;SDS011;59542;37.950;-122.338;2022-12-07T05:19:10;7.15;;;3.35;;
70008;SDS011;59542;37.950;-122.338;2022-12-07T05:21:37;6.72;;;3.10;;
70008;SDS011;59542;37.950;-122.338;2022-12-07T05:24:04;9.68;;;3.08;;
70008;SDS011;59542;37.950;-122.338;2022-12-07T05:26:31;5.43;;;2.75;;
70008;SDS011;59542;37.950;-122.338;2022-12-07T05:28:58;6.05;;;2.90;;
70008;SDS011;59542;37.950;-122.338;2022-12-07T05:31:25;4.95;;;3.15;;
70008;SDS011;59542;37.950;-122.338;2022-12-07T05:33:52;5.07;;;2.95;;
70008;SDS011;59542;37.950;-122.338;2022-12-07T05:36:19;6.13;;;3.97;;
70008;SDS011;59542;37.950;-122.338;2022-12-07T05:38:45;5.60;;;2.92;;
70008;SDS011;59542;37.950;-122.338;2022-12-07T05:41:15;3.95;;;2.63;;
70008;SDS011;59542;37.950;-122.338;2022-12-07T05:44:01;5.22;;;2.75;;
70008;SDS011;59542;37.950;-122.338;2022-12-07T05:46:27;3.85;;;2.58;;
70008;SDS011;59542;37.950;-122.338;2022-12-07T05:48:54;4.43;;;2.90;;
70008;SDS011;59542;37.950;-122.338;2022-12-07T05:51:20;3.60;;;2.92;;
70008;SDS011;59542;37.950;-122.338;2022-12-07T05:53:46;4.57;;;3.08;;
70008;SDS011;59542;37.950;-122.338;2022-12-07T05:56:13;5.63;;;3.30;;
70008;SDS011;59542;37.950;-122.338;2022-12-07T05:58:40;5.50;;;2.70;;
70008;SDS011;59542;37.950;-122.338;2022-12-07T06:01:24;5.18;;;2.95;;
70008;SDS011;59542;37.950;-122.338;2022-12-07T06:03:51;4.50;;;2.60;;
70008;SDS011;59542;37.950;-122.338;2022-12-07T06:06:17;6.80;;;2.95;;
70008;SDS011;59542;37.950;-122.338;2022-12-07T06:08:43;6.35;;;2.95;;
70008;SDS011;59542;37.950;-122.338;2022-12-07T06:11:10;6.40;;;2.83;;
70008;SDS011;59542;37.950;-122.338;2022-12-07T06:13:54;3.60;;;2.38;;
70008;SDS011;59542;37.950;-122.338;2022-12-07T06:16:20;4.57;;;2.80;;
70008;SDS011;59542;37.950;-122.338;2022-12-07T06:18:46;8.60;;;3.15;;
70008;SDS011;59542;37.950;-122.338;2022-12-07T06:21:13;3.85;;;2.47;;
70008;SDS011;59542;37.950;-122.338;2022-12-07T06:23:39;5.80;;;2.97;;
70008;SDS011;59542;37.950;-122.338;2022-12-07T06:26:05;3.20;;;2.90;;
70008;SDS011;59542;37.950;-122.338;2022-12-07T06:28:32;3.47;;;2.75;;
70008;SDS011;59542;37.950;-122.338;2022-12-07T06:30:58;5.88;;;3.63;;
70008;SDS011;59542;37.950;-122.338;2022-12-07T06:33:27;4.15;;;2.63;;
70008;SDS011;59542;37.950;-122.338;2022-12-07T06:35:54;6.13;;;2.97;;
70008;SDS011;59542;37.950;-122.338;2022-12-07T06:38:21;4.60;;;2.90;;
70008;SDS011;59542;37.950;-122.338;2022-12-07T06:40:47;6.05;;;2.65;;
70008;SDS011;59542;37.950;-122.338;2022-12-07T06:43:13;5.88;;;2.83;;
70008;SDS011;59542;37.950;-122.338;2022-12-07T06:45:40;4.00;;;2.60;;
70008;SDS011;59542;37.950;-122.338;2022-12-07T06:48:07;3.45;;;3.15;;
70008;SDS011;59542;37.950;-122.338;2022-12-07T06:50:33;3.50;;;2.70;;
70008;SDS011;59542;37.950;-122.338;2022-12-07T06:52:59;6.20;;;2.72;;
70008;SDS011;59542;37.950;-122.338;2022-12-07T06:55:26;4.43;;;3.22;;
70008;SDS011;59542;37.950;-122.338;2022-12-07T06:57:52;3.35;;;2.78;;
70008;SDS011;59542;37.950;-122.338;2022-12-07T07:00:18;4.65;;;2.80;;
70008;SDS011;59542;37.950;-122.338;2022-12-07T07:02:45;5.15;;;2.80;;
70008;SDS011;59542;37.950;-122.338;2022-12-07T07:05:11;4.55;;;2.42;;
70008;SDS011;59542;37.950;-122.338;2022-12-07T07:07:37;3.58;;;2.72;;
70008;SDS011;59542;37.950;-122.338;2022-12-07T07:10:03;6.72;;;2.97;;
70008;SDS011;59542;37.950;-122.338;2022-12-07T07:12:30;3.72;;;2.78;;
70008;SDS011;59542;37.950;-122.338;2022-12-07T07:14:56;3.97;;;2.63;;
70008;SDS011;59542;37.950;-122.338;2022-12-07T07:17:23;3.60;;;2.80;;
70008;SDS011;59542;37.950;-122.338;2022-12-07T07:19:49;3.03;;;2.40;;
70008;SDS011;59542;37.950;-122.338;2022-12-07T07:22:15;4.32;;;2.65;;
70008;SDS011;59542;37.950;-122.338;2022-12-07T07:24:41;4.07;;;2.50;;
70008;SDS011;59542;37.950;-122.338;2022-12-07T07:27:07;2.55;;;2.35;;
70008;SDS011;59542;37.950;-122.338;2022-12-07T07:29:34;6.40;;;3.00;;
70008;SDS011;59542;37.950;-122.338;2022-12-07T07:32:00;4.72;;;2.63;;
70008;SDS011;59542;37.950;-122.338;2022-12-07T07:34:26;2.97;;;2.47;;
70008;SDS011;59542;37.950;-122.338;2022-12-07T07:36:52;3.25;;;2.75;;
70008;SDS011;59542;37.950;-122.338;2022-12-07T07:39:19;4.03;;;2.42;;
70008;SDS011;59542;37.950;-122.338;2022-12-07T07:41:46;5.55;;;2.85;;
70008;SDS011;59542;37.950;-122.338;2022-12-07T07:44:12;4.55;;;2.88;;
70008;SDS011;59542;37.950;-122.338;2022-12-07T07:46:39;3.10;;;2.10;;
70008;SDS011;59542;37.950;-122.338;2022-12-07T07:49:05;3.15;;;1.88;;
70008;SDS011;59542;37.950;-122.338;2022-12-07T07:51:31;5.20;;;2.00;;
70008;SDS011;59542;37.950;-122.338;2022-12-07T07:53:57;5.03;;;1.75;;
70008;SDS011;59542;37.950;-122.338;2022-12-07T07:56:23;3.00;;;1.80;;
70008;SDS011;59542;37.950;-122.338;2022-12-07T07:58:52;2.13;;;1.52;;
70008;SDS011;59542;37.950;-122.338;2022-12-07T08:01:19;2.83;;;1.60;;
70008;SDS011;59542;37.950;-122.338;2022-12-07T08:03:48;2.85;;;1.50;;
70008;SDS011;59542;37.950;-122.338;2022-12-07T08:06:15;3.10;;;1.30;;
70008;SDS011;59542;37.950;-122.338;2022-12-07T08:08:41;2.53;;;1.10;;
70008;SDS011;59542;37.950;-122.338;2022-12-07T08:11:08;8.57;;;1.33;;
70008;SDS011;59542;37.950;-122.338;2022-12-07T08:13:35;2.10;;;1.00;;
70008;SDS011;59542;37.950;-122.338;2022-12-07T08:16:08;4.80;;;1.30;;
70008;SDS011;59542;37.950;-122.338;2022-12-07T08:18:36;1.77;;;1.17;;
70008;SDS011;59542;37.950;-122.338;2022-12-07T08:21:07;5.47;;;1.58;;
70008;SDS011;59542;37.950;-122.338;2022-12-07T08:23:36;1.83;;;1.30;;
70008;SDS011;59542;37.950;-122.338;2022-12-07T08:26:03;2.30;;;1.10;;
70008;SDS011;59542;37.950;-122.338;2022-12-07T08:28:31;2.17;;;1.33;;
70008;SDS011;59542;37.950;-122.338;2022-12-07T08:31:01;4.63;;;1.20;;
70008;SDS011;59542;37.950;-122.338;2022-12-07T08:33:32;2.15;;;1.00;;
70008;SDS011;59542;37.950;-122.338;2022-12-07T08:36:02;3.42;;;0.95;;
70008;SDS011;59542;37.950;-122.338;2022-12-07T08:38:30;4.38;;;1.65;;
70008;SDS011;59542;37.950;-122.338;2022-12-07T08:40:57;3.78;;;1.38;;
70008;SDS011;59542;37.950;-122.338;2022-12-07T08:43:24;2.88;;;1.30;;
70008;SDS011;59542;37.950;-122.338;2022-12-07T08:48:41;3.75;;;1.30;;
70008;SDS011;59542;37.950;-122.338;2022-12-07T08:51:15;1.58;;;1.20;;
70008;SDS011;59542;37.950;-122.338;2022-12-07T08:53:41;1.67;;;1.15;;
70008;SDS011;59542;37.950;-122.338;2022-12-07T08:56:09;3.13;;;1.13;;
70008;SDS011;59542;37.950;-122.338;2022-12-07T08:58:35;2.88;;;0.90;;
70008;SDS011;59542;37.950;-122.338;2022-12-07T09:01:03;2.00;;;1.13;;
70008;SDS011;59542;37.950;-122.338;2022-12-07T09:03:30;3.15;;;1.13;;
70008;SDS011;59542;37.950;-122.338;2022-12-07T09:05:57;1.42;;;0.90;;
70008;SDS011;59542;37.950;-122.338;2022-12-07T09:08:26;3.08;;;1.20;;
70008;SDS011;59542;37.950;-122.338;2022-12-07T09:10:57;1.63;;;1.13;;
70008;SDS011;59542;37.950;-122.338;2022-12-07T09:13:23;2.95;;;1.20;;
70008;SDS011;59542;37.950;-122.338;2022-12-07T09:15:49;1.02;;;0.60;;
70008;SDS011;59542;37.950;-122.338;2022-12-07T09:18:15;5.07;;;0.90;;
70008;SDS011;59542;37.950;-122.338;2022-12-07T09:20:42;3.22;;;1.15;;
70008;SDS011;59542;37.950;-122.338;2022-12-07T09:23:08;2.45;;;1.27;;
70008;SDS011;59542;37.950;-122.338;2022-12-07T09:25:34;1.95;;;0.88;;
70008;SDS011;59542;37.950;-122.338;2022-12-07T09:28:00;4.85;;;1.45;;
70008;SDS011;59542;37.950;-122.338;2022-12-07T09:30:27;3.67;;;1.80;;
70008;SDS011;59542;37.950;-122.338;2022-12-07T09:32:54;5.63;;;2.30;;
70008;SDS011;59542;37.950;-122.338;2022-12-07T09:35:22;3.63;;;2.20;;
70008;SDS011;59542;37.950;-122.338;2022-12-07T09:37:49;3.75;;;2.30;;
70008;SDS011;59542;37.950;-122.338;2022-12-07T09:40:16;3.58;;;2.17;;
70008;SDS011;59542;37.950;-122.338;2022-12-07T09:42:47;4.45;;;2.53;;
70008;SDS011;59542;37.950;-122.338;2022-12-07T09:45:19;4.30;;;2.30;;
70008;SDS011;59542;37.950;-122.338;2022-12-07T09:47:50;3.70;;;2.88;;
70008;SDS011;59542;37.950;-122.338;2022-12-07T09:50:24;3.30;;;2.10;;
70008;SDS011;59542;37.950;-122.338;2022-12-07T09:52:53;3.10;;;2.40;;
70008;SDS011;59542;37.950;-122.338;2022-12-07T09:55:33;2.47;;;1.90;;
70008;SDS011;59542;37.950;-122.338;2022-12-07T09:58:01;2.45;;;2.00;;
70008;SDS011;59542;37.950;-122.338;2022-12-07T10:00:29;2.30;;;1.80;;
70008;SDS011;59542;37.950;-122.338;2022-12-07T10:02:59;2.83;;;2.28;;
70008;SDS011;59542;37.950;-122.338;2022-12-07T10:05:31;2.83;;;2.13;;
70008;SDS011;59542;37.950;-122.338;2022-12-07T10:08:02;2.90;;;2.22;;
70008;SDS011;59542;37.950;-122.338;2022-12-07T10:10:30;3.20;;;2.30;;
70008;SDS011;59542;37.950;-122.338;2022-12-07T10:12:59;8.65;;;2.53;;
70008;SDS011;59542;37.950;-122.338;2022-12-07T10:21:15;4.30;;;2.38;;
70008;SDS011;59542;37.950;-122.338;2022-12-07T10:24:00;1.95;;;1.83;;
70008;SDS011;59542;37.950;-122.338;2022-12-07T10:29:22;3.10;;;2.13;;
70008;SDS011;59542;37.950;-122.338;2022-12-07T10:32:02;4.78;;;2.22;;
70008;SDS011;59542;37.950;-122.338;2022-12-07T10:34:50;4.68;;;2.60;;
70008;SDS011;59542;37.950;-122.338;2022-12-07T10:37:18;5.10;;;2.65;;
70008;SDS011;59542;37.950;-122.338;2022-12-07T10:39:49;3.95;;;2.35;;
70008;SDS011;59542;37.950;-122.338;2022-12-07T10:42:24;3.08;;;1.95;;
70008;SDS011;59542;37.950;-122.338;2022-12-07T10:56:03;2.55;;;1.63;;
70008;SDS011;59542;37.950;-122.338;2022-12-07T10:58:50;2.75;;;1.98;;
70008;SDS011;59542;37.950;-122.338;2022-12-07T11:02:06;4.10;;;2.10;;
70008;SDS011;59542;37.950;-122.338;2022-12-07T11:10:44;4.40;;;1.75;;
70008;SDS011;59542;37.950;-122.338;2022-12-07T11:13:16;4.88;;;2.10;;
70008;SDS011;59542;37.950;-122.338;2022-12-07T11:23:52;4.72;;;2.83;;
70008;SDS011;59542;37.950;-122.338;2022-12-07T11:35:54;2.28;;;1.80;;
70008;SDS011;59542;37.950;-122.338;2022-12-07T11:41:00;4.75;;;2.03;;
70008;SDS011;59542;37.950;-122.338;2022-12-07T11:46:43;1.98;;;1.42;;
70008;SDS011;59542;37.950;-122.338;2022-12-07T11:51:45;1.95;;;1.48;;
70008;SDS011;59542;37.950;-122.338;2022-12-07T11:54:26;3.30;;;1.95;;
70008;SDS011;59542;37.950;-122.338;2022-12-07T11:57:07;3.38;;;1.98;;
70008;SDS011;59542;37.950;-122.338;2022-12-07T11:59:45;3.03;;;1.83;;
70008;SDS011;59542;37.950;-122.338;2022-12-07T12:02:31;3.30;;;1.92;;
70008;SDS011;59542;37.950;-122.338;2022-12-07T12:05:12;2.85;;;2.00;;
70008;SDS011;59542;37.950;-122.338;2022-12-07T12:07:42;2.70;;;1.83;;
70008;SDS011;59542;37.950;-122.338;2022-12-07T12:10:20;2.75;;;2.17;;
70008;SDS011;59542;37.950;-122.338;2022-12-07T12:13:15;3.10;;;2.15;;
70008;SDS011;59542;37.950;-122.338;2022-12-07T12:16:02;4.90;;;1.98;;
70008;SDS011;59542;37.950;-122.338;2022-12-07T12:21:14;2.55;;;2.00;;
70008;SDS011;59542;37.950;-122.338;2022-12-07T12:23:44;2.58;;;2.17;;
70008;SDS011;59542;37.950;-122.338;2022-12-07T12:26:17;2.25;;;1.73;;
70008;SDS011;59542;37.950;-122.338;2022-12-07T12:47:00;2.75;;;2.40;;
70008;SDS011;59542;37.950;-122.338;2022-12-07T12:52:01;4.57;;;2.70;;
70008;SDS011;59542;37.950;-122.338;2022-12-07T12:57:34;4.88;;;2.80;;
70008;SDS011;59542;37.950;-122.338;2022-12-07T13:00:22;5.50;;;2.97;;
70008;SDS011;59542;37.950;-122.338;2022-12-07T13:02:53;3.50;;;2.75;;
70008;SDS011;59542;37.950;-122.338;2022-12-07T13:05:22;4.07;;;2.75;;
70008;SDS011;59542;37.950;-122.338;2022-12-07T13:23:27;4.25;;;2.42;;
70008;SDS011;59542;37.950;-122.338;2022-12-07T13:25:58;2.15;;;1.95;;
70008;SDS011;59542;37.950;-122.338;2022-12-07T13:31:37;3.17;;;1.90;;
70008;SDS011;59542;37.950;-122.338;2022-12-07T13:36:55;3.67;;;1.67;;
70008;SDS011;59542;37.950;-122.338;2022-12-07T13:39:23;1.42;;;1.10;;
70008;SDS011;59542;37.950;-122.338;2022-12-07T13:41:52;1.95;;;1.35;;
70008;SDS011;59542;37.950;-122.338;2022-12-07T13:44:22;2.33;;;1.25;;
70008;SDS011;59542;37.950;-122.338;2022-12-07T13:49:27;3.05;;;1.27;;
70008;SDS011;59542;37.950;-122.338;2022-12-07T13:51:56;3.13;;;1.10;;
70008;SDS011;59542;37.950;-122.338;2022-12-07T13:54:54;2.67;;;1.10;;
70008;SDS011;59542;37.950;-122.338;2022-12-07T13:57:24;2.55;;;1.00;;
70008;SDS011;59542;37.950;-122.338;2022-12-07T13:59:51;2.47;;;1.23;;
70008;SDS011;59542;37.950;-122.338;2022-12-07T14:05:14;3.85;;;1.10;;
70008;SDS011;59542;37.950;-122.338;2022-12-07T14:07:53;2.85;;;0.90;;
70008;SDS011;59542;37.950;-122.338;2022-12-07T14:12:54;3.35;;;1.20;;
70008;SDS011;59542;37.950;-122.338;2022-12-07T14:15:22;1.30;;;0.90;;
70008;SDS011;59542;37.950;-122.338;2022-12-07T14:17:53;1.65;;;0.95;;
70008;SDS011;59542;37.950;-122.338;2022-12-07T14:20:33;1.58;;;1.10;;
70008;SDS011;59542;37.950;-122.338;2022-12-07T14:23:05;1.40;;;1.00;;
70008;SDS011;59542;37.950;-122.338;2022-12-07T14:25:48;2.53;;;1.20;;
70008;SDS011;59542;37.950;-122.338;2022-12-07T14:30:53;3.20;;;2.45;;
70008;SDS011;59542;37.950;-122.338;2022-12-07T14:33:19;5.32;;;2.97;;
70008;SDS011;59542;37.950;-122.338;2022-12-07T14:35:47;4.63;;;3.08;;
70008;SDS011;59542;37.950;-122.338;2022-12-07T14:38:14;5.10;;;3.10;;
70008;SDS011;59542;37.950;-122.338;2022-12-07T14:40:40;6.30;;;3.22;;
70008;SDS011;59542;37.950;-122.338;2022-12-07T14:43:11;6.70;;;3.08;;
70008;SDS011;59542;37.950;-122.338;2022-12-07T14:45:40;4.90;;;2.97;;
70008;SDS011;59542;37.950;-122.338;2022-12-07T14:48:07;4.00;;;2.55;;
70008;SDS011;59542;37.950;-122.338;2022-12-07T14:50:38;2.85;;;2.10;;
70008;SDS011;59542;37.950;-122.338;2022-12-07T14:53:12;3.33;;;1.70;;
70008;SDS011;59542;37.950;-122.338;2022-12-07T14:55:41;1.92;;;1.40;;
70008;SDS011;59542;37.950;-122.338;2022-12-07T14:58:14;2.10;;;1.60;;
70008;SDS011;59542;37.950;-122.338;2022-12-07T15:00:42;2.45;;;1.65;;
70008;SDS011;59542;37.950;-122.338;2022-12-07T15:03:08;2.53;;;1.58;;
70008;SDS011;59542;37.950;-122.338;2022-12-07T15:05:35;2.35;;;1.40;;
70008;SDS011;59542;37.950;-122.338;2022-12-07T15:08:02;2.40;;;1.30;;
70008;SDS011;59542;37.950;-122.338;2022-12-07T15:10:30;2.47;;;1.50;;
70008;SDS011;59542;37.950;-122.338;2022-12-07T15:12:58;3.28;;;1.73;;
70008;SDS011;59542;37.950;-122.338;2022-12-07T15:15:46;1.55;;;1.40;;
70008;SDS011;59542;37.950;-122.338;2022-12-07T15:18:15;5.97;;;2.08;;
70008;SDS011;59542;37.950;-122.338;2022-12-07T15:20:42;2.38;;;1.65;;
70008;SDS011;59542;37.950;-122.338;2022-12-07T15:23:09;4.55;;;1.98;;
70008;SDS011;59542;37.950;-122.338;2022-12-07T15:25:46;3.65;;;2.15;;
70008;SDS011;59542;37.950;-122.338;2022-12-07T15:28:14;3.55;;;2.40;;
70008;SDS011;59542;37.950;-122.338;2022-12-07T15:30:41;3.15;;;2.13;;
70008;SDS011;59542;37.950;-122.338;2022-12-07T15:33:11;4.00;;;2.08;;
70008;SDS011;59542;37.950;-122.338;2022-12-07T15:35:41;4.50;;;2.38;;
70008;SDS011;59542;37.950;-122.338;2022-12-07T15:38:10;5.22;;;2.15;;
70008;SDS011;59542;37.950;-122.338;2022-12-07T15:40:36;3.90;;;2.40;;
70008;SDS011;59542;37.950;-122.338;2022-12-07T15:43:02;2.83;;;2.22;;
70008;SDS011;59542;37.950;-122.338;2022-12-07T15:45:29;3.65;;;2.30;;
70008;SDS011;59542;37.950;-122.338;2022-12-07T15:47:56;3.70;;;2.10;;
70008;SDS011;59542;37.950;-122.338;2022-12-07T15:50:22;4.20;;;2.67;;
70008;SDS011;59542;37.950;-122.338;2022-12-07T15:52:48;2.45;;;2.00;;
70008;SDS011;59542;37.950;-122.338;2022-12-07T15:55:15;2.90;;;2.25;;
70008;SDS011;59542;37.950;-122.338;2022-12-07T15:57:41;2.72;;;2.17;;
70008;SDS011;59542;37.950;-122.338;2022-12-07T16:00:07;4.20;;;2.35;;
70008;SDS011;59542;37.950;-122.338;2022-12-07T16:02:38;7.03;;;2.65;;
70008;SDS011;59542;37.950;-122.338;2022-12-07T16:05:04;8.30;;;2.97;;
70008;SDS011;59542;37.950;-122.338;2022-12-07T16:07:31;6.28;;;2.97;;
70008;SDS011;59542;37.950;-122.338;2022-12-07T16:09:57;12.45;;;6.13;;
70008;SDS011;59542;37.950;-122.338;2022-12-07T16:12:23;22.35;;;8.20;;
70008;SDS011;59542;37.950;-122.338;2022-12-07T16:14:50;26.20;;;10.25;;
70008;SDS011;59542;37.950;-122.338;2022-12-07T16:17:16;30.23;;;10.38;;
70008;SDS011;59542;37.950;-122.338;2022-12-07T16:19:42;37.42;;;12.48;;
70008;SDS011;59542;37.950;-122.338;2022-12-07T16:22:09;31.42;;;12.88;;
70008;SDS011;59542;37.950;-122.338;2022-12-07T16:24:35;31.63;;;12.90;;
70008;SDS011;59542;37.950;-122.338;2022-12-07T16:27:01;32.97;;;13.40;;
70008;SDS011;59542;37.950;-122.338;2022-12-07T16:29:27;33.88;;;13.70;;
70008;SDS011;59542;37.950;-122.338;2022-12-07T16:31:53;38.35;;;14.93;;
70008;SDS011;59542;37.950;-122.338;2022-12-07T16:34:20;36.70;;;15.13;;
70008;SDS011;59542;37.950;-122.338;2022-12-07T16:36:46;35.53;;;14.55;;
70008;SDS011;59542;37.950;-122.338;2022-12-07T16:39:12;28.92;;;14.13;;
70008;SDS011;59542;37.950;-122.338;2022-12-07T16:41:38;31.33;;;15.13;;
70008;SDS011;59542;37.950;-122.338;2022-12-07T16:44:05;30.38;;;15.82;;
70008;SDS011;59542;37.950;-122.338;2022-12-07T16:46:33;29.40;;;15.60;;
70008;SDS011;59542;37.950;-122.338;2022-12-07T16:49:01;25.00;;;14.75;;